Time;durP1;ratioP1;P1;durP2;ratioP2;P2;SDS_P1;SDS_P2;PMS_P1;PMS_P2;Temp;Humidity;BMP_temperature;BMP_pressure;BME280_temperature;BME280_humidity;BME280_pressure;Samples;Min_cycle;Max_cycle;Signal;HPM_P1;HPM_P2
2023/07/20 00:01:15;;;;;;;3.53;3.10;;;19.40;99.90;;;;;;5010751;28;20881;-71
2023/07/20 00:03:41;;;;;;;6.57;3.47;;;19.50;99.90;;;;;;5015919;28;20266;-71
2023/07/20 00:06:06;;;;;;;4.22;3.33;;;19.50;99.90;;;;;;5011080;28;20216;-71
2023/07/20 00:08:32;;;;;;;5.25;4.20;;;19.40;99.90;;;;;;5017803;28;20216;-70
2023/07/20 00:10:58;;;;;;;6.53;4.28;;;19.40;99.90;;;;;;5013169;28;20562;-71
2023/07/20 00:13:24;;;;;;;4.95;4.15;;;19.30;99.90;;;;;;5016976;28;20589;-71
2023/07/20 00:15:50;;;;;;;4.70;4.00;;;19.20;99.90;;;;;;5016406;28;20209;-70
2023/07/20 00:18:16;;;;;;;5.93;4.03;;;19.20;99.90;;;;;;5018052;28;20264;-70
2023/07/20 00:20:42;;;;;;;5.57;3.53;;;19.10;99.90;;;;;;5017460;28;20232;-71
2023/07/20 00:23:07;;;;;;;5.72;3.67;;;19.00;99.90;;;;;;5018340;28;20221;-71
2023/07/20 00:25:33;;;;;;;4.75;3.90;;;19.00;99.90;;;;;;5020084;28;20212;-71
2023/07/20 00:27:59;;;;;;;4.60;3.92;;;19.10;99.90;;;;;;5011421;28;20209;-70
2023/07/20 00:30:25;;;;;;;6.28;3.60;;;19.00;99.90;;;;;;5008688;28;20864;-71
2023/07/20 00:32:50;;;;;;;5.90;3.70;;;19.00;99.90;;;;;;5017354;28;20224;-71
2023/07/20 00:35:16;;;;;;;6.53;3.60;;;19.00;99.90;;;;;;5008158;28;20612;-70
2023/07/20 00:37:42;;;;;;;5.57;3.55;;;19.00;99.90;;;;;;5013881;28;20183;-69
2023/07/20 00:40:07;;;;;;;5.03;3.38;;;19.00;99.90;;;;;;5008598;28;20209;-70
2023/07/20 00:42:33;;;;;;;5.72;3.33;;;18.90;99.90;;;;;;5015916;28;20734;-71
2023/07/20 00:45:00;;;;;;;4.25;3.47;;;18.90;99.90;;;;;;5013539;28;20213;-71
2023/07/20 00:47:26;;;;;;;3.95;3.55;;;18.90;99.90;;;;;;5018207;28;20212;-71
2023/07/20 00:49:53;;;;;;;4.13;3.00;;;18.80;99.90;;;;;;5015663;28;20275;-70
2023/07/20 00:52:21;;;;;;;4.50;3.20;;;18.70;99.90;;;;;;5016206;28;20221;-71
2023/07/20 00:54:47;;;;;;;8.57;4.18;;;18.60;99.90;;;;;;5015354;28;20247;-71
2023/07/20 00:57:15;;;;;;;3.58;3.28;;;18.60;99.90;;;;;;5016918;28;20244;-72
2023/07/20 00:59:41;;;;;;;4.05;3.45;;;18.60;99.90;;;;;;5017926;28;20303;-72
2023/07/20 01:02:06;;;;;;;4.47;3.58;;;18.60;99.90;;;;;;5018034;28;20284;-71
2023/07/20 01:04:33;;;;;;;5.47;4.15;;;18.60;99.90;;;;;;5013482;28;20224;-71
2023/07/20 01:07:14;;;;;;;5.32;4.00;;;18.60;99.90;;;;;;5012360;28;20223;-70
2023/07/20 01:09:42;;;;;;;4.35;3.60;;;18.60;99.90;;;;;;5012846;28;20250;-72
2023/07/20 01:12:21;;;;;;;8.20;3.90;;;18.60;99.90;;;;;;5010572;28;20232;-72
2023/07/20 01:14:47;;;;;;;4.40;3.42;;;18.50;99.90;;;;;;5009641;28;20246;-72
2023/07/20 01:17:13;;;;;;;3.85;3.45;;;18.50;99.90;;;;;;5010336;28;20236;-71
2023/07/20 01:19:39;;;;;;;3.92;3.58;;;18.40;99.90;;;;;;5010603;28;20180;-70
2023/07/20 01:22:26;;;;;;;4.55;3.67;;;18.50;99.90;;;;;;5010114;28;20223;-71
2023/07/20 01:25:08;;;;;;;5.93;4.13;;;18.50;99.90;;;;;;5017917;28;20254;-70
2023/07/20 01:27:39;;;;;;;5.07;3.95;;;18.60;99.90;;;;;;5026174;28;20682;-72
2023/07/20 01:30:19;;;;;;;4.20;3.72;;;18.40;99.90;;;;;;5014586;28;20241;-72
2023/07/20 01:32:47;;;;;;;4.38;3.75;;;18.30;99.90;;;;;;5021217;28;20827;-72
2023/07/20 01:35:14;;;;;;;5.22;4.30;;;18.40;99.90;;;;;;5016940;28;20197;-71
2023/07/20 01:37:43;;;;;;;6.05;4.47;;;18.30;99.90;;;;;;5019506;28;20260;-71
2023/07/20 01:40:10;;;;;;;7.22;4.13;;;18.30;99.90;;;;;;5015405;28;20211;-71
2023/07/20 01:42:36;;;;;;;5.30;3.78;;;18.30;99.90;;;;;;5009024;28;20256;-72
2023/07/20 01:45:01;;;;;;;4.38;3.97;;;18.20;99.90;;;;;;5011980;28;20204;-70
2023/07/20 01:47:27;;;;;;;4.32;3.90;;;18.20;99.90;;;;;;5007164;28;20214;-73
2023/07/20 01:49:53;;;;;;;6.47;4.38;;;18.20;99.90;;;;;;5008971;28;20188;-69
2023/07/20 01:52:18;;;;;;;5.63;3.85;;;18.30;99.90;;;;;;5016977;28;20239;-69
2023/07/20 01:54:44;;;;;;;4.40;4.00;;;18.30;99.90;;;;;;5013019;28;20581;-69
2023/07/20 01:57:09;;;;;;;4.43;4.03;;;18.30;99.90;;;;;;5010803;28;20212;-71
2023/07/20 01:59:35;;;;;;;6.53;4.15;;;18.30;99.90;;;;;;5014717;28;20579;-72
2023/07/20 02:02:01;;;;;;;6.65;4.70;;;18.40;99.90;;;;;;5012169;28;20199;-70
2023/07/20 02:04:26;;;;;;;5.32;4.50;;;18.30;99.90;;;;;;5014954;28;20209;-71
2023/07/20 02:06:52;;;;;;;5.22;4.20;;;18.30;99.90;;;;;;5014328;28;20243;-70
2023/07/20 02:09:17;;;;;;;5.18;4.68;;;18.40;99.90;;;;;;5014844;28;20258;-72
2023/07/20 02:11:43;;;;;;;5.82;4.38;;;18.40;99.90;;;;;;5016587;28;20208;-70
2023/07/20 02:14:08;;;;;;;6.07;4.63;;;18.30;99.90;;;;;;5016339;28;20291;-72
2023/07/20 02:16:34;;;;;;;5.32;4.82;;;18.40;99.90;;;;;;5020387;28;20185;-72
2023/07/20 02:19:00;;;;;;;6.68;4.50;;;18.30;99.90;;;;;;5008530;28;20208;-71
2023/07/20 02:21:25;;;;;;;5.13;4.63;;;18.30;99.90;;;;;;5005169;28;20216;-71
2023/07/20 02:23:51;;;;;;;4.97;4.35;;;18.30;99.90;;;;;;5020275;28;20216;-70
2023/07/20 02:26:16;;;;;;;6.25;4.85;;;18.30;99.90;;;;;;5007221;28;20302;-71
2023/07/20 02:28:42;;;;;;;5.57;4.97;;;18.30;99.90;;;;;;5013725;28;20639;-72
2023/07/20 02:31:08;;;;;;;7.25;5.65;;;18.20;99.90;;;;;;5016150;28;20224;-72
2023/07/20 02:33:33;;;;;;;5.13;4.65;;;18.20;99.90;;;;;;5016809;28;20718;-71
2023/07/20 02:35:59;;;;;;;6.50;4.85;;;18.20;99.90;;;;;;5014660;28;20216;-71
2023/07/20 02:38:24;;;;;;;5.53;4.47;;;18.20;99.90;;;;;;5011852;28;20637;-73
2023/07/20 02:40:51;;;;;;;6.15;4.60;;;18.30;99.90;;;;;;5014865;28;20720;-72
2023/07/20 02:43:17;;;;;;;6.55;4.50;;;18.30;99.90;;;;;;5017111;28;20703;-71
2023/07/20 02:45:43;;;;;;;7.57;4.55;;;18.20;99.90;;;;;;5017510;28;20208;-70
2023/07/20 02:48:09;;;;;;;5.55;5.00;;;18.20;99.90;;;;;;5011121;28;20204;-71
2023/07/20 02:50:35;;;;;;;5.47;4.82;;;18.30;99.90;;;;;;5016547;28;20238;-72
2023/07/20 02:53:01;;;;;;;6.32;4.93;;;18.40;99.90;;;;;;5016132;28;20174;-71
2023/07/20 02:55:26;;;;;;;7.57;6.18;;;18.40;99.90;;;;;;5019413;28;20185;-73
2023/07/20 02:57:52;;;;;;;8.18;6.63;;;18.40;99.90;;;;;;5018648;28;20215;-70
2023/07/20 03:00:19;;;;;;;10.10;7.40;;;18.50;99.90;;;;;;5012979;28;20214;-72
2023/07/20 03:02:47;;;;;;;7.93;7.05;;;18.50;99.90;;;;;;5031964;28;20730;-72
2023/07/20 03:05:14;;;;;;;11.63;8.07;;;18.50;99.90;;;;;;5017730;28;20196;-73
2023/07/20 03:07:39;;;;;;;10.13;9.13;;;18.40;99.90;;;;;;5015047;28;20186;-73
2023/07/20 03:10:09;;;;;;;10.88;8.73;;;18.40;99.90;;;;;;5020624;28;20215;-70
2023/07/20 03:12:35;;;;;;;8.93;8.02;;;18.30;99.90;;;;;;5021062;28;20201;-73
2023/07/20 03:15:02;;;;;;;10.45;8.68;;;18.30;99.90;;;;;;5021050;28;20208;-73
2023/07/20 03:17:27;;;;;;;9.63;8.73;;;18.30;99.90;;;;;;5013116;28;20316;-72
2023/07/20 03:19:53;;;;;;;11.30;9.50;;;18.30;99.90;;;;;;5019234;28;20694;-71
2023/07/20 03:22:19;;;;;;;11.40;8.68;;;18.30;99.90;;;;;;5016035;28;20218;-72
2023/07/20 03:24:44;;;;;;;10.25;8.77;;;18.30;99.90;;;;;;5021936;28;20223;-72
2023/07/20 03:27:10;;;;;;;10.32;9.18;;;18.30;99.90;;;;;;5024553;28;21065;-71
2023/07/20 03:29:36;;;;;;;10.80;9.68;;;18.30;99.90;;;;;;5021935;28;20279;-71
2023/07/20 03:32:01;;;;;;;9.85;8.85;;;18.40;99.90;;;;;;5018741;28;20227;-71
2023/07/20 03:34:27;;;;;;;9.43;8.25;;;18.40;99.90;;;;;;5019625;28;20251;-71
2023/07/20 03:36:53;;;;;;;10.60;8.90;;;18.40;99.90;;;;;;5021858;28;20298;-72
2023/07/20 03:39:19;;;;;;;9.95;8.68;;;18.40;99.90;;;;;;5019679;28;20208;-72
2023/07/20 03:41:44;;;;;;;9.25;8.23;;;18.40;99.90;;;;;;5020862;28;20221;-72
2023/07/20 03:44:10;;;;;;;10.50;8.13;;;18.50;99.90;;;;;;5018927;28;20207;-71
2023/07/20 03:46:36;;;;;;;8.60;7.60;;;18.50;99.90;;;;;;5020397;28;20678;-72
2023/07/20 03:49:01;;;;;;;8.13;7.38;;;18.50;99.90;;;;;;5019423;28;20713;-71
2023/07/20 03:51:27;;;;;;;6.38;5.80;;;18.50;99.90;;;;;;5018944;28;20209;-70
2023/07/20 03:53:52;;;;;;;8.70;7.03;;;18.40;99.90;;;;;;5020277;28;20694;-72
2023/07/20 03:56:18;;;;;;;9.05;7.20;;;18.40;99.90;;;;;;5017993;28;20418;-72
2023/07/20 03:58:43;;;;;;;8.57;6.70;;;18.40;99.90;;;;;;5020232;28;20607;-72
2023/07/20 04:01:09;;;;;;;8.85;6.43;;;18.40;99.90;;;;;;5017566;28;20264;-71
2023/07/20 04:03:36;;;;;;;8.57;7.25;;;18.40;99.90;;;;;;5021100;28;20305;-72
2023/07/20 04:06:02;;;;;;;7.68;6.88;;;18.40;99.90;;;;;;5017707;28;20203;-69
2023/07/20 04:08:27;;;;;;;8.48;6.22;;;18.30;99.90;;;;;;5017812;28;20284;-72
2023/07/20 04:10:53;;;;;;;7.18;6.53;;;18.30;99.90;;;;;;5019228;28;20177;-70
2023/07/20 04:13:19;;;;;;;6.65;5.68;;;18.30;99.90;;;;;;5018171;28;20208;-71
2023/07/20 04:15:44;;;;;;;7.85;7.15;;;18.30;99.90;;;;;;5019170;28;20289;-72
2023/07/20 04:18:10;;;;;;;8.60;6.95;;;18.40;99.90;;;;;;5020550;28;20275;-71
2023/07/20 04:20:36;;;;;;;9.73;7.40;;;18.40;99.90;;;;;;5015919;28;20209;-73
2023/07/20 04:23:01;;;;;;;9.18;7.43;;;18.40;99.90;;;;;;5020757;28;20207;-71
2023/07/20 04:25:27;;;;;;;7.50;6.80;;;18.40;99.90;;;;;;5020973;28;20178;-72
2023/07/20 04:27:53;;;;;;;10.18;7.55;;;18.40;99.90;;;;;;5021421;28;20238;-71
2023/07/20 04:30:22;;;;;;;8.07;6.90;;;18.50;99.90;;;;;;5017495;28;20292;-70
2023/07/20 04:32:48;;;;;;;7.45;6.53;;;18.40;99.90;;;;;;5022557;28;20196;-71
2023/07/20 04:35:38;;;;;;;8.13;6.75;;;18.50;99.90;;;;;;5017871;28;20201;-69
2023/07/20 04:38:04;;;;;;;9.07;6.40;;;18.60;99.90;;;;;;5016024;28;20172;-72
2023/07/20 04:40:29;;;;;;;7.63;6.85;;;18.70;99.90;;;;;;5018900;28;20244;-71
2023/07/20 04:42:55;;;;;;;6.93;6.22;;;18.80;99.90;;;;;;5019663;28;20216;-71
2023/07/20 04:45:22;;;;;;;8.35;6.60;;;19.00;99.90;;;;;;5012884;28;20208;-72
2023/07/20 04:47:51;;;;;;;9.35;6.55;;;19.00;99.90;;;;;;5023051;28;20213;-71
2023/07/20 04:50:16;;;;;;;7.10;5.95;;;19.10;99.90;;;;;;5017022;28;20296;-71
2023/07/20 04:52:42;;;;;;;7.32;6.03;;;19.20;99.90;;;;;;5018183;28;20702;-70
2023/07/20 04:55:08;;;;;;;8.10;6.43;;;19.10;99.90;;;;;;5019158;28;20295;-70
2023/07/20 04:57:34;;;;;;;8.23;5.95;;;19.30;99.90;;;;;;5015434;28;20722;-70
2023/07/20 05:00:00;;;;;;;6.38;5.78;;;19.50;99.90;;;;;;5009694;28;20220;-70
2023/07/20 05:02:25;;;;;;;6.32;5.70;;;19.60;99.90;;;;;;5011885;28;20631;-69
2023/07/20 05:04:51;;;;;;;7.38;5.97;;;19.50;99.90;;;;;;5016063;28;20200;-70
2023/07/20 05:07:16;;;;;;;6.60;5.30;;;19.70;99.90;;;;;;5014667;28;20208;-70
2023/07/20 05:09:42;;;;;;;5.80;5.30;;;19.80;99.90;;;;;;5015224;28;20206;-71
2023/07/20 05:12:08;;;;;;;5.32;4.70;;;19.90;99.90;;;;;;5016822;28;20247;-72
2023/07/20 05:14:33;;;;;;;5.68;4.95;;;20.30;99.90;;;;;;5015781;28;20217;-73
2023/07/20 05:16:59;;;;;;;6.68;5.28;;;20.40;99.90;;;;;;5018130;28;20626;-71
2023/07/20 05:19:25;;;;;;;6.10;4.72;;;20.40;99.90;;;;;;5016903;28;20184;-72
2023/07/20 05:21:51;;;;;;;5.40;4.60;;;20.30;99.90;;;;;;5007339;28;20225;-71
2023/07/20 05:24:17;;;;;;;5.55;5.05;;;20.40;99.90;;;;;;5010867;28;20216;-70
2023/07/20 05:26:42;;;;;;;5.68;5.07;;;20.60;99.90;;;;;;5013104;28;20209;-71
2023/07/20 05:29:08;;;;;;;8.00;5.68;;;21.20;99.90;;;;;;5015269;28;20176;-71
2023/07/20 05:31:33;;;;;;;5.25;4.75;;;21.50;99.90;;;;;;5015473;28;20176;-72
2023/07/20 05:33:59;;;;;;;6.55;4.80;;;21.40;99.90;;;;;;5015170;28;20299;-72
2023/07/20 05:36:25;;;;;;;5.35;4.80;;;21.50;99.90;;;;;;5012046;28;20228;-71
2023/07/20 05:38:50;;;;;;;8.23;5.43;;;21.70;99.90;;;;;;5011170;28;20253;-70
2023/07/20 05:41:16;;;;;;;6.95;5.65;;;21.90;99.90;;;;;;5016396;28;20612;-71
2023/07/20 05:43:42;;;;;;;8.10;4.95;;;22.10;99.90;;;;;;5013133;28;20193;-71
2023/07/20 05:46:08;;;;;;;7.95;5.43;;;21.70;99.90;;;;;;5016616;28;20556;-70
2023/07/20 05:48:33;;;;;;;6.43;5.70;;;21.70;99.90;;;;;;5015216;28;20267;-72
2023/07/20 05:50:59;;;;;;;6.60;5.97;;;21.40;99.90;;;;;;5014090;28;20695;-70
2023/07/20 05:53:24;;;;;;;6.55;5.50;;;21.10;99.90;;;;;;5012887;28;20294;-71
2023/07/20 05:55:56;;;;;;;6.70;4.55;;;20.80;99.90;;;;;;5014745;28;20247;-70
2023/07/20 05:58:22;;;;;;;9.27;5.65;;;20.40;99.90;;;;;;5021876;28;20291;-72
2023/07/20 06:00:49;;;;;;;6.07;5.35;;;20.20;99.90;;;;;;5004574;28;20296;-69
2023/07/20 06:03:16;;;;;;;7.70;5.05;;;20.00;99.90;;;;;;5004824;28;20691;-72
2023/07/20 06:05:42;;;;;;;7.72;6.50;;;19.90;99.90;;;;;;5002489;28;20255;-70
2023/07/20 06:08:08;;;;;;;7.15;5.57;;;19.80;99.90;;;;;;5004958;28;20197;-71
2023/07/20 06:10:34;;;;;;;8.43;6.13;;;19.80;99.90;;;;;;5004834;28;20259;-70
2023/07/20 06:12:59;;;;;;;9.65;6.35;;;19.80;99.90;;;;;;5006646;28;20569;-71
2023/07/20 06:15:34;;;;;;;9.07;5.88;;;19.90;99.90;;;;;;5010257;28;20248;-70
2023/07/20 06:18:00;;;;;;;10.52;6.28;;;20.00;99.90;;;;;;5008817;28;20240;-71
2023/07/20 06:20:26;;;;;;;8.25;5.85;;;20.20;99.90;;;;;;5005079;28;20221;-70
2023/07/20 06:22:52;;;;;;;6.90;5.55;;;20.40;99.90;;;;;;5003621;28;20217;-70
2023/07/20 06:25:18;;;;;;;7.50;4.90;;;20.50;99.90;;;;;;5004173;28;20730;-73
2023/07/20 06:27:44;;;;;;;9.15;5.05;;;20.60;99.90;;;;;;5004591;28;20274;-71
2023/07/20 06:30:10;;;;;;;6.88;4.55;;;20.80;99.90;;;;;;5006434;28;20204;-71
2023/07/20 06:32:36;;;;;;;6.43;4.38;;;21.30;99.90;;;;;;5004198;28;20295;-71
2023/07/20 06:35:01;;;;;;;7.40;4.00;;;22.10;99.90;;;;;;5008909;28;20284;-71
2023/07/20 06:37:27;;;;;;;4.95;3.75;;;22.90;99.90;;;;;;5013557;28;20185;-71
2023/07/20 06:39:53;;;;;;;5.63;3.40;;;23.20;99.90;;;;;;5008639;28;20220;-72
2023/07/20 06:42:18;;;;;;;6.03;3.42;;;23.00;99.90;;;;;;5009012;28;20220;-71
2023/07/20 06:44:45;;;;;;;5.60;3.45;;;22.60;99.90;;;;;;5008601;28;20263;-69
2023/07/20 06:47:10;;;;;;;3.78;2.58;;;22.10;99.90;;;;;;5009119;28;20189;-72
2023/07/20 06:49:36;;;;;;;5.50;2.58;;;21.70;99.90;;;;;;5008461;28;20260;-72
2023/07/20 06:52:02;;;;;;;4.15;2.83;;;21.70;99.90;;;;;;5007330;28;20271;-70
2023/07/20 06:54:27;;;;;;;6.25;2.67;;;23.50;99.90;;;;;;5009000;28;20236;-71
2023/07/20 06:56:53;;;;;;;5.15;2.30;;;25.80;99.90;;;;;;5008956;28;20240;-71
2023/07/20 06:59:19;;;;;;;3.78;2.00;;;27.50;99.90;;;;;;5007510;28;20691;-72
2023/07/20 07:01:44;;;;;;;3.25;1.92;;;29.00;99.90;;;;;;5009128;28;20287;-69
2023/07/20 07:04:10;;;;;;;3.90;1.60;;;28.70;99.90;;;;;;5009344;28;20748;-71
2023/07/20 07:06:37;;;;;;;3.42;1.77;;;29.80;99.90;;;;;;5009812;28;20249;-70
2023/07/20 07:09:03;;;;;;;3.47;1.73;;;28.90;99.90;;;;;;5010768;28;20205;-70
2023/07/20 07:11:29;;;;;;;1.67;1.08;;;29.10;99.90;;;;;;5011225;28;20221;-71
2023/07/20 07:13:54;;;;;;;2.00;1.15;;;29.90;99.90;;;;;;5010402;28;20219;-71
2023/07/20 07:16:20;;;;;;;1.67;1.02;;;30.30;99.90;;;;;;5011671;28;20226;-71
2023/07/20 07:18:46;;;;;;;1.52;1.00;;;30.90;99.90;;;;;;5010015;28;20216;-71
2023/07/20 07:21:12;;;;;;;1.10;1.00;;;31.50;99.90;;;;;;5017205;28;20291;-72
2023/07/20 07:23:40;;;;;;;23.23;4.50;;;31.30;99.90;;;;;;5020460;28;20362;-70
2023/07/20 07:26:06;;;;;;;3.67;1.25;;;31.20;99.90;;;;;;5016674;28;20553;-71
2023/07/20 07:28:31;;;;;;;3.22;1.40;;;30.30;99.90;;;;;;5015649;28;20177;-71
2023/07/20 07:30:58;;;;;;;2.20;1.40;;;29.50;99.90;;;;;;5011143;28;20216;-71
2023/07/20 07:33:24;;;;;;;1.98;1.40;;;28.70;99.90;;;;;;5017021;28;20228;-71
2023/07/20 07:35:53;;;;;;;2.67;1.48;;;28.80;99.90;;;;;;5018075;28;20232;-72
2023/07/20 07:38:19;;;;;;;1.90;1.00;;;28.50;99.90;;;;;;5019166;28;20212;-71
2023/07/20 07:40:46;;;;;;;2.78;1.00;;;28.20;99.90;;;;;;5016546;28;20985;-72
2023/07/20 07:43:13;;;;;;;2.35;1.33;;;27.90;99.90;;;;;;5021233;28;20762;-71
2023/07/20 07:45:38;;;;;;;2.13;0.90;;;28.70;99.90;;;;;;5015047;28;20208;-70
2023/07/20 07:48:05;;;;;;;1.30;1.00;;;29.10;99.90;;;;;;5014507;28;20696;-71
2023/07/20 07:50:31;;;;;;;1.58;1.02;;;29.40;99.90;;;;;;5015328;28;20215;-72
2023/07/20 07:52:57;;;;;;;0.93;0.65;;;29.80;99.90;;;;;;5008304;28;20182;-72
2023/07/20 07:55:23;;;;;;;2.05;0.82;;;29.90;99.90;;;;;;5015772;28;20275;-72
2023/07/20 07:57:49;;;;;;;0.93;0.73;;;29.60;99.90;;;;;;5010654;28;20217;-73
2023/07/20 08:00:18;;;;;;;1.10;1.00;;;29.30;99.90;;;;;;5007694;28;20580;-72
2023/07/20 08:02:45;;;;;;;1.83;0.88;;;29.10;99.90;;;;;;5010802;28;20255;-72
2023/07/20 08:05:11;;;;;;;0.70;0.60;;;28.60;99.90;;;;;;5015014;28;20212;-72
2023/07/20 08:07:37;;;;;;;1.30;0.80;;;28.10;99.90;;;;;;5012376;28;20184;-71
2023/07/20 08:10:03;;;;;;;2.03;1.10;;;27.20;99.90;;;;;;5012892;28;20354;-71
2023/07/20 08:12:29;;;;;;;2.80;2.00;;;26.00;99.90;;;;;;5014934;28;20307;-71
2023/07/20 08:14:55;;;;;;;2.33;1.10;;;25.30;99.90;;;;;;5016782;28;20304;-72
2023/07/20 08:17:20;;;;;;;2.38;1.30;;;24.90;99.90;;;;;;5013952;28;20949;-72
2023/07/20 08:19:46;;;;;;;1.55;1.20;;;24.70;99.90;;;;;;5020138;28;20177;-69
2023/07/20 08:22:12;;;;;;;5.40;2.10;;;24.60;99.90;;;;;;5020678;28;20219;-71
2023/07/20 08:24:41;;;;;;;5.13;1.10;;;24.50;99.90;;;;;;5021014;28;20262;-70
2023/07/20 08:27:08;;;;;;;2.50;0.90;;;24.40;99.90;;;;;;5006785;28;20209;-71
2023/07/20 08:29:34;;;;;;;4.68;1.40;;;24.70;99.90;;;;;;5013185;28;20690;-70
2023/07/20 08:32:00;;;;;;;4.65;1.52;;;25.40;99.90;;;;;;5008907;28;20620;-69
2023/07/20 08:34:25;;;;;;;4.80;1.95;;;25.00;99.90;;;;;;5013036;28;20235;-72
2023/07/20 08:36:51;;;;;;;8.70;2.22;;;24.90;99.90;;;;;;5010295;28;20275;-71
2023/07/20 08:39:17;;;;;;;1.88;1.00;;;24.90;99.90;;;;;;5014552;28;20212;-71
2023/07/20 08:41:46;;;;;;;7.80;1.70;;;25.50;99.90;;;;;;5013293;28;20231;-72
2023/07/20 08:44:12;;;;;;;3.58;1.38;;;26.10;99.90;;;;;;5015800;28;20200;-70
2023/07/20 08:46:39;;;;;;;2.00;0.93;;;27.00;99.90;;;;;;5015627;28;20862;-71
2023/07/20 08:49:06;;;;;;;1.75;0.98;;;27.30;99.90;;;;;;5015774;28;20201;-69
2023/07/20 08:51:33;;;;;;;2.38;1.10;;;28.00;99.90;;;;;;5016834;28;20593;-71
2023/07/20 08:53:59;;;;;;;1.33;0.80;;;29.10;99.90;;;;;;5018991;28;20271;-76
2023/07/20 08:56:26;;;;;;;1.98;1.05;;;28.80;99.90;;;;;;5014582;28;20725;-72
2023/07/20 08:58:55;;;;;;;0.40;0.40;;;28.30;99.90;;;;;;5016723;28;20197;-71
2023/07/20 09:01:21;;;;;;;0.90;0.70;;;28.30;99.90;;;;;;5011591;28;20754;-72
2023/07/20 09:03:47;;;;;;;0.55;0.55;;;28.90;99.90;;;;;;5005785;28;20251;-71
2023/07/20 09:06:13;;;;;;;1.15;0.70;;;29.20;99.90;;;;;;5006036;28;20237;-72
2023/07/20 09:08:40;;;;;;;1.67;0.63;;;28.60;99.90;;;;;;5011709;28;20246;-71
2023/07/20 09:11:06;;;;;;;1.17;0.50;;;28.00;99.90;;;;;;5027864;28;20219;-74
2023/07/20 09:13:35;;;;;;;1.35;0.40;;;27.70;99.90;;;;;;5013272;28;20604;-74
2023/07/20 09:16:03;;;;;;;0.93;0.63;;;27.60;99.90;;;;;;5008329;28;20209;-74
2023/07/20 09:18:31;;;;;;;0.68;0.60;;;28.40;99.90;;;;;;5013693;28;20218;-73
2023/07/20 09:21:05;;;;;;;1.45;0.57;;;28.70;99.90;;;;;;5009519;28;20256;-74
2023/07/20 09:23:35;;;;;;;3.40;0.63;;;29.40;99.90;;;;;;5015827;28;20220;-74
2023/07/20 09:26:09;;;;;;;1.70;0.70;;;29.10;99.90;;;;;;5013802;28;20191;-74
2023/07/20 09:28:43;;;;;;;1.98;0.50;;;28.90;99.90;;;;;;5019396;28;20295;-73
2023/07/20 09:31:19;;;;;;;2.08;0.60;;;28.30;99.90;;;;;;5017471;28;20216;-74
2023/07/20 09:33:46;;;;;;;0.65;0.57;;;27.70;99.90;;;;;;5024856;28;20233;-74
2023/07/20 09:36:12;;;;;;;2.08;0.63;;;26.80;99.90;;;;;;5015079;28;20214;-74
2023/07/20 09:38:39;;;;;;;1.33;0.98;;;25.90;99.90;;;;;;5012336;28;20224;-73
2023/07/20 09:41:06;;;;;;;1.73;0.63;;;25.50;99.90;;;;;;5006363;28;20205;-74
2023/07/20 09:43:34;;;;;;;1.90;0.63;;;24.80;99.90;;;;;;5011548;28;20223;-73
2023/07/20 09:46:00;;;;;;;0.98;0.73;;;24.20;99.90;;;;;;5008089;28;20637;-76
2023/07/20 09:48:26;;;;;;;0.85;0.77;;;23.80;99.90;;;;;;5012844;28;20212;-75
2023/07/20 09:50:53;;;;;;;1.85;1.08;;;23.40;99.90;;;;;;5011079;28;20208;-74
2023/07/20 09:53:19;;;;;;;2.88;1.20;;;23.10;99.90;;;;;;5013453;28;20217;-76
2023/07/20 09:55:47;;;;;;;2.53;1.27;;;22.70;99.90;;;;;;5014494;28;20180;-74
2023/07/20 09:58:13;;;;;;;2.50;1.48;;;22.40;99.90;;;;;;5013651;28;20296;-73
2023/07/20 10:00:44;;;;;;;1.35;1.10;;;22.30;99.90;;;;;;5013720;28;20218;-74
2023/07/20 10:03:12;;;;;;;2.80;1.40;;;22.10;99.90;;;;;;5015068;28;20250;-75
2023/07/20 10:05:42;;;;;;;4.00;2.22;;;22.10;99.90;;;;;;5016053;28;20266;-76
2023/07/20 10:08:12;;;;;;;4.07;2.85;;;22.20;99.90;;;;;;5016501;28;20198;-74
2023/07/20 10:10:40;;;;;;;3.38;1.58;;;22.30;99.90;;;;;;5019738;28;20318;-78
2023/07/20 10:13:13;;;;;;;5.88;3.65;;;22.40;99.90;;;;;;5018117;28;20664;-72
2023/07/20 10:15:53;;;;;;;1.90;1.00;;;22.50;99.90;;;;;;5016943;28;20219;-73
2023/07/20 10:18:34;;;;;;;2.50;1.10;;;22.70;99.90;;;;;;5010602;28;20704;-76
2023/07/20 10:21:00;;;;;;;2.03;1.50;;;22.80;99.90;;;;;;5012371;28;20564;-74
2023/07/20 10:23:29;;;;;;;3.97;1.73;;;22.90;99.90;;;;;;5014802;28;20321;-76
2023/07/20 10:25:55;;;;;;;1.27;0.80;;;22.80;99.90;;;;;;5012803;28;20176;-74
2023/07/20 10:28:23;;;;;;;2.40;0.90;;;22.70;99.90;;;;;;5014650;28;20576;-73
2023/07/20 10:30:49;;;;;;;3.35;1.42;;;22.70;99.90;;;;;;5018673;28;20665;-69
2023/07/20 10:33:17;;;;;;;2.40;1.10;;;22.70;99.90;;;;;;5015482;28;20210;-70
2023/07/20 10:35:54;;;;;;;3.80;1.30;;;22.80;99.90;;;;;;5019565;28;20216;-73
2023/07/20 10:38:37;;;;;;;2.20;1.08;;;22.80;99.90;;;;;;5038610;28;20257;-72
2023/07/20 10:41:03;;;;;;;1.83;1.23;;;22.80;99.90;;;;;;5017153;28;20246;-73
2023/07/20 10:43:30;;;;;;;3.85;1.02;;;22.70;99.90;;;;;;5022969;28;20224;-72
2023/07/20 10:45:56;;;;;;;5.55;1.30;;;22.70;99.90;;;;;;5016918;28;20226;-72
2023/07/20 10:48:25;;;;;;;4.55;1.08;;;22.70;99.90;;;;;;5022452;28;20208;-73
2023/07/20 10:51:16;;;;;;;1.85;1.00;;;22.50;99.90;;;;;;4999055;28;20221;-72
2023/07/20 10:53:42;;;;;;;1.58;0.98;;;22.70;99.90;;;;;;5019730;28;20212;-69
2023/07/20 10:56:15;;;;;;;1.65;1.00;;;22.70;99.90;;;;;;5012627;28;20200;-72
2023/07/20 10:58:41;;;;;;;1.42;1.10;;;23.00;99.90;;;;;;5023575;28;20207;-72
2023/07/20 11:01:08;;;;;;;2.60;1.23;;;23.20;99.90;;;;;;5013554;28;20549;-72
2023/07/20 11:03:38;;;;;;;1.70;0.75;;;23.10;99.90;;;;;;5016607;28;20222;-72
2023/07/20 11:06:38;;;;;;;0.82;0.63;;;23.50;99.90;;;;;;5012867;28;20216;-72
2023/07/20 11:09:03;;;;;;;1.58;0.70;;;23.50;99.90;;;;;;4992912;28;20209;-70
2023/07/20 11:11:33;;;;;;;3.75;1.10;;;23.50;99.90;;;;;;5019048;28;20208;-73
2023/07/20 11:14:00;;;;;;;1.17;0.80;;;23.40;99.90;;;;;;5015367;28;20201;-72
2023/07/20 11:16:36;;;;;;;2.35;1.00;;;23.30;99.90;;;;;;5018132;28;20181;-72
2023/07/20 11:19:03;;;;;;;1.10;0.80;;;23.10;99.90;;;;;;5013951;28;20213;-72
2023/07/20 11:21:34;;;;;;;1.73;0.75;;;23.10;99.90;;;;;;5019406;28;20219;-71
2023/07/20 11:24:03;;;;;;;2.95;0.90;;;23.20;99.90;;;;;;5020584;28;20651;-72
2023/07/20 11:26:29;;;;;;;1.90;0.77;;;23.40;99.90;;;;;;5022368;28;20209;-72
2023/07/20 11:28:54;;;;;;;3.25;1.08;;;23.70;99.90;;;;;;5018533;28;20173;-71
2023/07/20 11:31:20;;;;;;;1.63;1.10;;;24.10;99.90;;;;;;5016562;28;20217;-71
2023/07/20 11:33:46;;;;;;;1.05;0.90;;;24.10;99.90;;;;;;5016083;28;20975;-71
2023/07/20 11:36:13;;;;;;;1.58;1.00;;;24.30;99.90;;;;;;5010222;28;20342;-72
2023/07/20 11:38:42;;;;;;;1.13;0.90;;;24.40;99.90;;;;;;5015824;28;20330;-72
2023/07/20 11:41:08;;;;;;;1.13;0.70;;;24.50;99.90;;;;;;5011704;28;20181;-73
2023/07/20 11:43:34;;;;;;;4.57;1.42;;;24.50;99.90;;;;;;5016585;28;20208;-72
2023/07/20 11:46:00;;;;;;;1.20;0.70;;;24.40;99.90;;;;;;5013342;28;20200;-71
2023/07/20 11:48:26;;;;;;;0.82;0.77;;;24.30;99.90;;;;;;5015716;28;20256;-72
2023/07/20 11:50:52;;;;;;;0.55;0.55;;;24.60;99.90;;;;;;5016692;28;20208;-70
2023/07/20 11:53:18;;;;;;;2.80;0.68;;;24.70;99.90;;;;;;5011524;28;20689;-71
2023/07/20 11:55:45;;;;;;;2.08;0.60;;;24.40;99.90;;;;;;5018885;28;20180;-71
2023/07/20 11:58:10;;;;;;;0.82;0.60;;;23.90;99.90;;;;;;5015768;28;20209;-72
2023/07/20 12:00:39;;;;;;;1.73;0.57;;;23.60;99.90;;;;;;5020341;28;20717;-72
2023/07/20 12:03:10;;;;;;;0.95;0.85;;;23.30;99.90;;;;;;5018569;28;20217;-71
2023/07/20 12:05:38;;;;;;;2.63;0.77;;;23.20;99.90;;;;;;5014103;28;20213;-72
2023/07/20 12:08:04;;;;;;;3.05;1.10;;;23.10;99.90;;;;;;5012012;28;20184;-71
2023/07/20 12:10:30;;;;;;;1.10;0.50;;;23.00;99.90;;;;;;5011116;28;20532;-72
2023/07/20 12:13:03;;;;;;;1.85;0.85;;;23.00;99.90;;;;;;5018904;28;20224;-72
2023/07/20 12:15:32;;;;;;;1.40;0.90;;;22.90;99.90;;;;;;5010666;28;20206;-71
2023/07/20 12:18:01;;;;;;;5.47;1.67;;;23.00;99.90;;;;;;5014041;28;20568;-72
2023/07/20 12:20:36;;;;;;;0.73;0.50;;;23.00;99.90;;;;;;5017635;28;20216;-71
2023/07/20 12:23:04;;;;;;;3.45;1.35;;;23.20;99.90;;;;;;5013295;28;20284;-73
2023/07/20 12:25:48;;;;;;;1.23;0.95;;;23.30;99.90;;;;;;5016954;28;20710;-72
2023/07/20 12:28:16;;;;;;;0.95;0.50;;;23.70;99.90;;;;;;5001614;28;20262;-71
2023/07/20 12:30:46;;;;;;;2.50;0.70;;;23.50;99.90;;;;;;5018745;28;20208;-72
2023/07/20 12:33:15;;;;;;;1.67;0.80;;;23.30;99.90;;;;;;5014542;28;20318;-72
2023/07/20 12:35:43;;;;;;;2.15;0.95;;;23.20;99.90;;;;;;5019325;28;20219;-71
2023/07/20 12:38:08;;;;;;;1.30;0.60;;;23.50;99.90;;;;;;5017524;28;20180;-71
2023/07/20 12:40:36;;;;;;;1.02;0.70;;;23.70;99.90;;;;;;5021378;28;20173;-71
2023/07/20 12:43:01;;;;;;;1.95;0.80;;;23.70;99.90;;;;;;5009571;28;20928;-70
2023/07/20 12:45:27;;;;;;;1.73;0.90;;;23.80;99.90;;;;;;5007302;28;20205;-71